sensor_id;sensor_type;location;lat;lon;timestamp;P1;durP1;ratioP1;P2;durP2;ratioP2
65835;SDS011;52595;51.608;7.216;2022-10-31T00:01:12;20.13;;;10.45;;
65835;SDS011;52595;51.608;7.216;2022-10-31T00:03:41;17.70;;;10.23;;
65835;SDS011;52595;51.608;7.216;2022-10-31T00:06:06;17.23;;;10.02;;
65835;SDS011;52595;51.608;7.216;2022-10-31T00:08:32;16.17;;;9.75;;
65835;SDS011;52595;51.608;7.216;2022-10-31T00:10:57;21.30;;;10.32;;
65835;SDS011;52595;51.608;7.216;2022-10-31T00:13:22;23.35;;;10.68;;
65835;SDS011;52595;51.608;7.216;2022-10-31T00:15:48;19.60;;;10.10;;
65835;SDS011;52595;51.608;7.216;2022-10-31T00:18:13;20.05;;;10.20;;
65835;SDS011;52595;51.608;7.216;2022-10-31T00:20:39;21.20;;;10.43;;
65835;SDS011;52595;51.608;7.216;2022-10-31T00:23:04;18.05;;;10.32;;
65835;SDS011;52595;51.608;7.216;2022-10-31T00:25:35;21.10;;;10.40;;
65835;SDS011;52595;51.608;7.216;2022-10-31T00:28:02;20.95;;;10.15;;
65835;SDS011;52595;51.608;7.216;2022-10-31T00:30:29;22.88;;;10.25;;
65835;SDS011;52595;51.608;7.216;2022-10-31T00:32:54;20.50;;;9.68;;
65835;SDS011;52595;51.608;7.216;2022-10-31T00:35:20;21.08;;;10.50;;
65835;SDS011;52595;51.608;7.216;2022-10-31T00:37:45;18.58;;;9.93;;
65835;SDS011;52595;51.608;7.216;2022-10-31T00:40:11;19.50;;;10.05;;
65835;SDS011;52595;51.608;7.216;2022-10-31T00:42:36;19.70;;;10.30;;
65835;SDS011;52595;51.608;7.216;2022-10-31T00:45:02;19.48;;;10.30;;
65835;SDS011;52595;51.608;7.216;2022-10-31T00:47:27;21.02;;;11.00;;
65835;SDS011;52595;51.608;7.216;2022-10-31T00:49:52;19.67;;;10.35;;
65835;SDS011;52595;51.608;7.216;2022-10-31T00:52:18;18.13;;;10.45;;
65835;SDS011;52595;51.608;7.216;2022-10-31T00:54:43;18.00;;;10.50;;
65835;SDS011;52595;51.608;7.216;2022-10-31T00:57:08;20.40;;;10.75;;
65835;SDS011;52595;51.608;7.216;2022-10-31T00:59:34;23.58;;;11.32;;
65835;SDS011;52595;51.608;7.216;2022-10-31T01:01:59;25.13;;;11.82;;
65835;SDS011;52595;51.608;7.216;2022-10-31T01:04:24;21.85;;;11.50;;
65835;SDS011;52595;51.608;7.216;2022-10-31T01:06:50;20.55;;;10.73;;
65835;SDS011;52595;51.608;7.216;2022-10-31T01:09:15;19.75;;;11.23;;
65835;SDS011;52595;51.608;7.216;2022-10-31T01:11:41;18.42;;;10.77;;
65835;SDS011;52595;51.608;7.216;2022-10-31T01:14:06;20.08;;;10.93;;
65835;SDS011;52595;51.608;7.216;2022-10-31T01:16:31;20.33;;;10.43;;
65835;SDS011;52595;51.608;7.216;2022-10-31T01:18:57;18.70;;;10.50;;
65835;SDS011;52595;51.608;7.216;2022-10-31T01:21:23;18.25;;;10.27;;
65835;SDS011;52595;51.608;7.216;2022-10-31T01:23:54;22.17;;;10.88;;
65835;SDS011;52595;51.608;7.216;2022-10-31T01:26:22;16.75;;;10.15;;
65835;SDS011;52595;51.608;7.216;2022-10-31T01:31:19;27.42;;;10.23;;
65835;SDS011;52595;51.608;7.216;2022-10-31T01:33:46;20.00;;;10.10;;
65835;SDS011;52595;51.608;7.216;2022-10-31T01:36:22;23.02;;;11.02;;
65835;SDS011;52595;51.608;7.216;2022-10-31T01:38:49;18.88;;;10.55;;
65835;SDS011;52595;51.608;7.216;2022-10-31T01:41:17;23.63;;;10.65;;
65835;SDS011;52595;51.608;7.216;2022-10-31T01:43:49;18.98;;;9.98;;
65835;SDS011;52595;51.608;7.216;2022-10-31T01:46:15;17.77;;;9.73;;
65835;SDS011;52595;51.608;7.216;2022-10-31T01:48:44;23.00;;;9.88;;
65835;SDS011;52595;51.608;7.216;2022-10-31T01:51:10;17.25;;;10.00;;
65835;SDS011;52595;51.608;7.216;2022-10-31T01:53:38;20.45;;;9.68;;
65835;SDS011;52595;51.608;7.216;2022-10-31T01:56:04;21.05;;;9.32;;
65835;SDS011;52595;51.608;7.216;2022-10-31T01:58:30;19.85;;;10.00;;
65835;SDS011;52595;51.608;7.216;2022-10-31T02:00:58;18.67;;;9.98;;
65835;SDS011;52595;51.608;7.216;2022-10-31T02:03:25;20.63;;;9.73;;
65835;SDS011;52595;51.608;7.216;2022-10-31T02:05:53;14.85;;;9.20;;
65835;SDS011;52595;51.608;7.216;2022-10-31T02:08:29;18.77;;;9.68;;
65835;SDS011;52595;51.608;7.216;2022-10-31T02:10:56;19.70;;;9.43;;
65835;SDS011;52595;51.608;7.216;2022-10-31T02:13:23;18.67;;;9.98;;
65835;SDS011;52595;51.608;7.216;2022-10-31T02:15:49;19.92;;;10.00;;
65835;SDS011;52595;51.608;7.216;2022-10-31T02:18:18;17.42;;;9.63;;
65835;SDS011;52595;51.608;7.216;2022-10-31T02:31:35;21.38;;;11.27;;
65835;SDS011;52595;51.608;7.216;2022-10-31T02:34:17;20.60;;;10.23;;
65835;SDS011;52595;51.608;7.216;2022-10-31T02:37:25;20.95;;;10.95;;
65835;SDS011;52595;51.608;7.216;2022-10-31T02:40:14;20.92;;;9.68;;
65835;SDS011;52595;51.608;7.216;2022-10-31T02:45:50;18.73;;;10.88;;
65835;SDS011;52595;51.608;7.216;2022-10-31T02:48:26;15.77;;;10.27;;
65835;SDS011;52595;51.608;7.216;2022-10-31T02:51:00;18.37;;;10.30;;
65835;SDS011;52595;51.608;7.216;2022-10-31T02:53:31;18.85;;;10.00;;
65835;SDS011;52595;51.608;7.216;2022-10-31T02:55:59;20.63;;;10.60;;
65835;SDS011;52595;51.608;7.216;2022-10-31T02:58:30;17.13;;;9.70;;
65835;SDS011;52595;51.608;7.216;2022-10-31T03:03:25;22.50;;;11.10;;
65835;SDS011;52595;51.608;7.216;2022-10-31T03:08:54;18.38;;;10.80;;
65835;SDS011;52595;51.608;7.216;2022-10-31T03:11:46;18.45;;;10.25;;
65835;SDS011;52595;51.608;7.216;2022-10-31T03:14:41;19.00;;;11.13;;
65835;SDS011;52595;51.608;7.216;2022-10-31T03:17:11;22.63;;;11.85;;
65835;SDS011;52595;51.608;7.216;2022-10-31T03:19:45;20.85;;;10.93;;
65835;SDS011;52595;51.608;7.216;2022-10-31T03:24:44;20.17;;;11.20;;
65835;SDS011;52595;51.608;7.216;2022-10-31T03:27:13;22.20;;;11.23;;
65835;SDS011;52595;51.608;7.216;2022-10-31T03:29:42;23.15;;;11.50;;
65835;SDS011;52595;51.608;7.216;2022-10-31T03:32:13;21.00;;;11.93;;
65835;SDS011;52595;51.608;7.216;2022-10-31T03:34:42;23.25;;;11.82;;
65835;SDS011;52595;51.608;7.216;2022-10-31T03:37:11;21.25;;;11.60;;
65835;SDS011;52595;51.608;7.216;2022-10-31T03:39:40;23.67;;;11.95;;
65835;SDS011;52595;51.608;7.216;2022-10-31T03:42:15;25.75;;;12.15;;
65835;SDS011;52595;51.608;7.216;2022-10-31T03:44:53;26.42;;;12.38;;
65835;SDS011;52595;51.608;7.216;2022-10-31T03:47:24;25.35;;;13.15;;
65835;SDS011;52595;51.608;7.216;2022-10-31T03:49:50;24.25;;;12.32;;
65835;SDS011;52595;51.608;7.216;2022-10-31T03:54:42;22.90;;;12.40;;
65835;SDS011;52595;51.608;7.216;2022-10-31T03:57:21;22.42;;;12.48;;
65835;SDS011;52595;51.608;7.216;2022-10-31T03:59:53;22.30;;;11.50;;
65835;SDS011;52595;51.608;7.216;2022-10-31T04:02:25;27.63;;;13.68;;
65835;SDS011;52595;51.608;7.216;2022-10-31T04:04:55;25.05;;;12.20;;
65835;SDS011;52595;51.608;7.216;2022-10-31T04:07:22;23.67;;;12.02;;
65835;SDS011;52595;51.608;7.216;2022-10-31T04:09:53;22.65;;;12.05;;
65835;SDS011;52595;51.608;7.216;2022-10-31T04:12:18;28.05;;;12.90;;
65835;SDS011;52595;51.608;7.216;2022-10-31T04:14:46;25.00;;;12.85;;
65835;SDS011;52595;51.608;7.216;2022-10-31T04:17:13;23.65;;;12.15;;
65835;SDS011;52595;51.608;7.216;2022-10-31T04:19:42;23.80;;;12.27;;
65835;SDS011;52595;51.608;7.216;2022-10-31T04:22:07;24.27;;;12.13;;
65835;SDS011;52595;51.608;7.216;2022-10-31T04:24:33;21.98;;;12.82;;
65835;SDS011;52595;51.608;7.216;2022-10-31T04:26:58;25.98;;;13.75;;
65835;SDS011;52595;51.608;7.216;2022-10-31T04:29:23;32.40;;;14.48;;
65835;SDS011;52595;51.608;7.216;2022-10-31T04:31:49;27.45;;;13.60;;
65835;SDS011;52595;51.608;7.216;2022-10-31T04:34:14;25.70;;;13.13;;
65835;SDS011;52595;51.608;7.216;2022-10-31T04:36:39;28.42;;;13.20;;
65835;SDS011;52595;51.608;7.216;2022-10-31T04:39:05;27.75;;;14.40;;
65835;SDS011;52595;51.608;7.216;2022-10-31T04:41:30;22.67;;;12.45;;
65835;SDS011;52595;51.608;7.216;2022-10-31T04:43:55;27.13;;;12.95;;
65835;SDS011;52595;51.608;7.216;2022-10-31T04:46:21;24.95;;;13.55;;
65835;SDS011;52595;51.608;7.216;2022-10-31T04:48:46;26.88;;;14.18;;
65835;SDS011;52595;51.608;7.216;2022-10-31T04:51:12;25.35;;;13.68;;
65835;SDS011;52595;51.608;7.216;2022-10-31T04:53:37;28.05;;;13.57;;
65835;SDS011;52595;51.608;7.216;2022-10-31T04:56:02;27.58;;;14.02;;
65835;SDS011;52595;51.608;7.216;2022-10-31T04:58:28;25.38;;;14.35;;
65835;SDS011;52595;51.608;7.216;2022-10-31T05:00:54;25.45;;;13.20;;
65835;SDS011;52595;51.608;7.216;2022-10-31T05:03:20;26.42;;;14.43;;
65835;SDS011;52595;51.608;7.216;2022-10-31T05:05:46;22.17;;;13.73;;
65835;SDS011;52595;51.608;7.216;2022-10-31T05:08:11;26.55;;;14.27;;
65835;SDS011;52595;51.608;7.216;2022-10-31T05:10:36;29.02;;;14.32;;
65835;SDS011;52595;51.608;7.216;2022-10-31T05:13:02;24.52;;;14.43;;
65835;SDS011;52595;51.608;7.216;2022-10-31T05:15:28;22.60;;;13.98;;
65835;SDS011;52595;51.608;7.216;2022-10-31T05:17:54;23.50;;;13.57;;
65835;SDS011;52595;51.608;7.216;2022-10-31T05:20:22;27.90;;;14.27;;
65835;SDS011;52595;51.608;7.216;2022-10-31T05:22:50;24.15;;;13.57;;
65835;SDS011;52595;51.608;7.216;2022-10-31T05:25:17;26.42;;;14.00;;
65835;SDS011;52595;51.608;7.216;2022-10-31T05:27:45;23.83;;;14.15;;
65835;SDS011;52595;51.608;7.216;2022-10-31T05:30:12;24.55;;;13.57;;
65835;SDS011;52595;51.608;7.216;2022-10-31T05:32:42;27.05;;;13.82;;
65835;SDS011;52595;51.608;7.216;2022-10-31T05:35:11;24.75;;;13.20;;
65835;SDS011;52595;51.608;7.216;2022-10-31T05:37:39;28.23;;;13.63;;
65835;SDS011;52595;51.608;7.216;2022-10-31T05:40:05;26.17;;;14.02;;
65835;SDS011;52595;51.608;7.216;2022-10-31T05:42:32;26.10;;;13.82;;
65835;SDS011;52595;51.608;7.216;2022-10-31T05:44:58;26.20;;;13.40;;
65835;SDS011;52595;51.608;7.216;2022-10-31T05:47:23;32.08;;;15.02;;
65835;SDS011;52595;51.608;7.216;2022-10-31T05:49:49;29.15;;;14.77;;
65835;SDS011;52595;51.608;7.216;2022-10-31T05:52:15;27.90;;;14.18;;
65835;SDS011;52595;51.608;7.216;2022-10-31T05:54:40;25.55;;;14.65;;
65835;SDS011;52595;51.608;7.216;2022-10-31T05:57:06;30.20;;;14.38;;
65835;SDS011;52595;51.608;7.216;2022-10-31T05:59:31;29.83;;;15.38;;
65835;SDS011;52595;51.608;7.216;2022-10-31T06:01:56;27.55;;;14.15;;
65835;SDS011;52595;51.608;7.216;2022-10-31T06:04:22;29.17;;;15.55;;
65835;SDS011;52595;51.608;7.216;2022-10-31T06:06:47;29.45;;;15.27;;
65835;SDS011;52595;51.608;7.216;2022-10-31T06:09:12;31.60;;;15.35;;
65835;SDS011;52595;51.608;7.216;2022-10-31T06:11:38;28.55;;;13.70;;
65835;SDS011;52595;51.608;7.216;2022-10-31T06:14:04;35.05;;;15.93;;
65835;SDS011;52595;51.608;7.216;2022-10-31T06:16:30;32.35;;;15.52;;
65835;SDS011;52595;51.608;7.216;2022-10-31T06:18:55;31.58;;;15.23;;
65835;SDS011;52595;51.608;7.216;2022-10-31T06:21:20;31.42;;;15.13;;
65835;SDS011;52595;51.608;7.216;2022-10-31T06:23:46;37.63;;;16.80;;
65835;SDS011;52595;51.608;7.216;2022-10-31T06:26:11;34.28;;;15.48;;
65835;SDS011;52595;51.608;7.216;2022-10-31T06:28:37;32.10;;;15.80;;
65835;SDS011;52595;51.608;7.216;2022-10-31T06:31:02;30.73;;;14.98;;
65835;SDS011;52595;51.608;7.216;2022-10-31T06:33:28;24.60;;;13.77;;
65835;SDS011;52595;51.608;7.216;2022-10-31T06:35:53;29.17;;;14.10;;
65835;SDS011;52595;51.608;7.216;2022-10-31T06:38:18;29.02;;;13.65;;
65835;SDS011;52595;51.608;7.216;2022-10-31T06:40:44;30.00;;;14.73;;
65835;SDS011;52595;51.608;7.216;2022-10-31T06:43:09;33.85;;;15.48;;
65835;SDS011;52595;51.608;7.216;2022-10-31T06:45:36;27.42;;;14.40;;
65835;SDS011;52595;51.608;7.216;2022-10-31T06:48:01;29.50;;;14.68;;
65835;SDS011;52595;51.608;7.216;2022-10-31T06:50:27;28.80;;;14.60;;
65835;SDS011;52595;51.608;7.216;2022-10-31T06:52:53;28.60;;;14.30;;
65835;SDS011;52595;51.608;7.216;2022-10-31T06:55:20;25.55;;;14.02;;
65835;SDS011;52595;51.608;7.216;2022-10-31T06:57:57;25.05;;;13.10;;
65835;SDS011;52595;51.608;7.216;2022-10-31T07:00:24;28.00;;;13.70;;
65835;SDS011;52595;51.608;7.216;2022-10-31T07:05:22;30.50;;;14.10;;
65835;SDS011;52595;51.608;7.216;2022-10-31T07:07:51;26.98;;;13.60;;
65835;SDS011;52595;51.608;7.216;2022-10-31T07:10:28;23.65;;;13.00;;
65835;SDS011;52595;51.608;7.216;2022-10-31T07:12:55;29.10;;;14.82;;
65835;SDS011;52595;51.608;7.216;2022-10-31T07:15:21;29.23;;;14.25;;
65835;SDS011;52595;51.608;7.216;2022-10-31T07:17:47;24.58;;;13.15;;
65835;SDS011;52595;51.608;7.216;2022-10-31T07:20:12;28.42;;;14.48;;
65835;SDS011;52595;51.608;7.216;2022-10-31T07:22:38;28.98;;;14.00;;
65835;SDS011;52595;51.608;7.216;2022-10-31T07:25:03;25.08;;;13.23;;
65835;SDS011;52595;51.608;7.216;2022-10-31T07:27:34;25.77;;;13.65;;
65835;SDS011;52595;51.608;7.216;2022-10-31T07:30:04;26.65;;;13.65;;
65835;SDS011;52595;51.608;7.216;2022-10-31T07:32:37;25.48;;;13.25;;
65835;SDS011;52595;51.608;7.216;2022-10-31T07:35:07;28.48;;;14.32;;
65835;SDS011;52595;51.608;7.216;2022-10-31T07:37:33;27.58;;;14.65;;
65835;SDS011;52595;51.608;7.216;2022-10-31T07:39:58;22.70;;;14.32;;
65835;SDS011;52595;51.608;7.216;2022-10-31T07:42:24;24.67;;;13.88;;
65835;SDS011;52595;51.608;7.216;2022-10-31T07:44:49;28.92;;;14.45;;
65835;SDS011;52595;51.608;7.216;2022-10-31T07:47:14;23.77;;;14.65;;
65835;SDS011;52595;51.608;7.216;2022-10-31T07:49:40;26.00;;;15.00;;
65835;SDS011;52595;51.608;7.216;2022-10-31T07:52:05;28.42;;;15.73;;
65835;SDS011;52595;51.608;7.216;2022-10-31T07:54:31;28.48;;;15.23;;
65835;SDS011;52595;51.608;7.216;2022-10-31T07:56:56;31.35;;;16.42;;
65835;SDS011;52595;51.608;7.216;2022-10-31T07:59:21;29.73;;;16.80;;
65835;SDS011;52595;51.608;7.216;2022-10-31T08:01:47;29.55;;;16.10;;
65835;SDS011;52595;51.608;7.216;2022-10-31T08:04:12;31.05;;;18.20;;
65835;SDS011;52595;51.608;7.216;2022-10-31T08:06:37;34.83;;;18.25;;
65835;SDS011;52595;51.608;7.216;2022-10-31T08:09:03;31.88;;;18.35;;
65835;SDS011;52595;51.608;7.216;2022-10-31T08:11:28;35.17;;;17.67;;
65835;SDS011;52595;51.608;7.216;2022-10-31T08:13:53;32.05;;;17.42;;
65835;SDS011;52595;51.608;7.216;2022-10-31T08:16:19;29.88;;;16.90;;
65835;SDS011;52595;51.608;7.216;2022-10-31T08:18:44;30.13;;;17.38;;
65835;SDS011;52595;51.608;7.216;2022-10-31T08:21:09;31.45;;;16.55;;
65835;SDS011;52595;51.608;7.216;2022-10-31T08:23:35;29.02;;;15.45;;
65835;SDS011;52595;51.608;7.216;2022-10-31T08:26:00;27.05;;;15.38;;
65835;SDS011;52595;51.608;7.216;2022-10-31T08:28:26;29.75;;;15.30;;
65835;SDS011;52595;51.608;7.216;2022-10-31T08:30:51;30.27;;;15.85;;
65835;SDS011;52595;51.608;7.216;2022-10-31T08:33:17;27.23;;;15.88;;
65835;SDS011;52595;51.608;7.216;2022-10-31T08:35:43;30.13;;;16.00;;
65835;SDS011;52595;51.608;7.216;2022-10-31T08:38:10;34.05;;;17.23;;
65835;SDS011;52595;51.608;7.216;2022-10-31T08:40:36;32.20;;;16.20;;
65835;SDS011;52595;51.608;7.216;2022-10-31T08:43:03;24.83;;;15.23;;
65835;SDS011;52595;51.608;7.216;2022-10-31T08:45:31;26.13;;;15.00;;
65835;SDS011;52595;51.608;7.216;2022-10-31T08:47:58;25.65;;;14.70;;
65835;SDS011;52595;51.608;7.216;2022-10-31T08:50:26;33.40;;;15.35;;
65835;SDS011;52595;51.608;7.216;2022-10-31T08:52:52;25.00;;;14.25;;
65835;SDS011;52595;51.608;7.216;2022-10-31T08:55:17;27.45;;;15.45;;
65835;SDS011;52595;51.608;7.216;2022-10-31T08:57:42;26.40;;;14.20;;
65835;SDS011;52595;51.608;7.216;2022-10-31T09:00:08;28.98;;;14.80;;
65835;SDS011;52595;51.608;7.216;2022-10-31T09:02:34;26.33;;;15.52;;
65835;SDS011;52595;51.608;7.216;2022-10-31T09:04:59;27.52;;;15.52;;
65835;SDS011;52595;51.608;7.216;2022-10-31T09:07:24;27.52;;;15.57;;
65835;SDS011;52595;51.608;7.216;2022-10-31T09:09:50;25.08;;;14.60;;
65835;SDS011;52595;51.608;7.216;2022-10-31T09:12:15;26.25;;;15.40;;
65835;SDS011;52595;51.608;7.216;2022-10-31T09:14:41;30.95;;;16.38;;
65835;SDS011;52595;51.608;7.216;2022-10-31T09:17:06;27.65;;;16.02;;
65835;SDS011;52595;51.608;7.216;2022-10-31T09:19:31;31.52;;;16.42;;
65835;SDS011;52595;51.608;7.216;2022-10-31T09:21:57;29.02;;;16.30;;
65835;SDS011;52595;51.608;7.216;2022-10-31T09:24:22;31.13;;;16.85;;
65835;SDS011;52595;51.608;7.216;2022-10-31T09:26:48;32.75;;;16.25;;
65835;SDS011;52595;51.608;7.216;2022-10-31T09:29:13;28.20;;;16.65;;
65835;SDS011;52595;51.608;7.216;2022-10-31T09:31:39;31.67;;;17.25;;
65835;SDS011;52595;51.608;7.216;2022-10-31T09:34:04;31.33;;;16.75;;
65835;SDS011;52595;51.608;7.216;2022-10-31T09:36:30;28.75;;;15.52;;
65835;SDS011;52595;51.608;7.216;2022-10-31T09:38:55;32.55;;;16.30;;
65835;SDS011;52595;51.608;7.216;2022-10-31T09:41:33;29.85;;;15.15;;
65835;SDS011;52595;51.608;7.216;2022-10-31T09:49:49;30.13;;;14.38;;
65835;SDS011;52595;51.608;7.216;2022-10-31T09:52:31;31.65;;;15.43;;
65835;SDS011;52595;51.608;7.216;2022-10-31T09:55:12;33.08;;;14.95;;
65835;SDS011;52595;51.608;7.216;2022-10-31T09:57:41;45.05;;;16.35;;
65835;SDS011;52595;51.608;7.216;2022-10-31T10:00:10;31.65;;;15.90;;
65835;SDS011;52595;51.608;7.216;2022-10-31T10:02:46;37.17;;;16.70;;
65835;SDS011;52595;51.608;7.216;2022-10-31T10:05:21;29.77;;;15.30;;
65835;SDS011;52595;51.608;7.216;2022-10-31T10:08:12;37.05;;;15.82;;
65835;SDS011;52595;51.608;7.216;2022-10-31T10:13:46;28.65;;;15.05;;
65835;SDS011;52595;51.608;7.216;2022-10-31T10:27:37;31.85;;;15.18;;
65835;SDS011;52595;51.608;7.216;2022-10-31T10:30:15;30.60;;;15.23;;
65835;SDS011;52595;51.608;7.216;2022-10-31T10:32:44;31.45;;;15.48;;
65835;SDS011;52595;51.608;7.216;2022-10-31T10:35:21;32.33;;;14.98;;
65835;SDS011;52595;51.608;7.216;2022-10-31T10:38:09;29.20;;;15.27;;
65835;SDS011;52595;51.608;7.216;2022-10-31T10:40:35;33.40;;;15.27;;
65835;SDS011;52595;51.608;7.216;2022-10-31T10:45:50;29.83;;;15.15;;
65835;SDS011;52595;51.608;7.216;2022-10-31T10:48:58;27.23;;;14.98;;
65835;SDS011;52595;51.608;7.216;2022-10-31T11:00:19;35.95;;;15.30;;
65835;SDS011;52595;51.608;7.216;2022-10-31T11:02:47;30.73;;;14.77;;
65835;SDS011;52595;51.608;7.216;2022-10-31T11:05:15;30.83;;;14.77;;
65835;SDS011;52595;51.608;7.216;2022-10-31T11:07:47;30.40;;;14.93;;
65835;SDS011;52595;51.608;7.216;2022-10-31T11:10:13;38.03;;;15.77;;
65835;SDS011;52595;51.608;7.216;2022-10-31T11:12:40;32.08;;;14.65;;
65835;SDS011;52595;51.608;7.216;2022-10-31T11:15:15;31.33;;;14.85;;
65835;SDS011;52595;51.608;7.216;2022-10-31T11:17:47;33.90;;;15.77;;
65835;SDS011;52595;51.608;7.216;2022-10-31T11:22:43;32.45;;;15.23;;
65835;SDS011;52595;51.608;7.216;2022-10-31T11:25:43;30.23;;;15.25;;
65835;SDS011;52595;51.608;7.216;2022-10-31T11:28:03;28.38;;;14.82;;
65835;SDS011;52595;51.608;7.216;2022-10-31T11:30:47;30.05;;;14.70;;
65835;SDS011;52595;51.608;7.216;2022-10-31T11:33:25;34.28;;;14.70;;
65835;SDS011;52595;51.608;7.216;2022-10-31T11:35:56;28.90;;;14.35;;
65835;SDS011;52595;51.608;7.216;2022-10-31T11:38:24;28.38;;;14.68;;
65835;SDS011;52595;51.608;7.216;2022-10-31T11:41:15;30.52;;;14.27;;
65835;SDS011;52595;51.608;7.216;2022-10-31T11:44:42;29.27;;;14.27;;
65835;SDS011;52595;51.608;7.216;2022-10-31T11:46:39;30.50;;;14.80;;
65835;SDS011;52595;51.608;7.216;2022-10-31T11:49:25;30.02;;;14.10;;
65835;SDS011;52595;51.608;7.216;2022-10-31T11:51:57;31.38;;;14.50;;
65835;SDS011;52595;51.608;7.216;2022-10-31T11:54:26;29.73;;;14.82;;
65835;SDS011;52595;51.608;7.216;2022-10-31T11:56:54;30.52;;;14.13;;
65835;SDS011;52595;51.608;7.216;2022-10-31T11:59:25;25.48;;;13.63;;
65835;SDS011;52595;51.608;7.216;2022-10-31T12:01:54;30.77;;;14.00;;
65835;SDS011;52595;51.608;7.216;2022-10-31T12:04:23;27.73;;;14.27;;
65835;SDS011;52595;51.608;7.216;2022-10-31T12:06:56;26.63;;;14.07;;
65835;SDS011;52595;51.608;7.216;2022-10-31T12:09:26;28.42;;;14.13;;
65835;SDS011;52595;51.608;7.216;2022-10-31T12:11:59;27.98;;;14.48;;
65835;SDS011;52595;51.608;7.216;2022-10-31T12:17:19;25.60;;;13.73;;
65835;SDS011;52595;51.608;7.216;2022-10-31T12:20:16;25.80;;;13.95;;
65835;SDS011;52595;51.608;7.216;2022-10-31T12:23:03;28.17;;;13.35;;
65835;SDS011;52595;51.608;7.216;2022-10-31T12:25:55;28.20;;;13.13;;
65835;SDS011;52595;51.608;7.216;2022-10-31T12:45:54;24.10;;;12.10;;
65835;SDS011;52595;51.608;7.216;2022-10-31T12:51:15;34.53;;;12.40;;
65835;SDS011;52595;51.608;7.216;2022-10-31T12:54:01;25.92;;;12.60;;
65835;SDS011;52595;51.608;7.216;2022-10-31T12:56:41;23.77;;;12.15;;
65835;SDS011;52595;51.608;7.216;2022-10-31T12:59:28;23.92;;;11.63;;
65835;SDS011;52595;51.608;7.216;2022-10-31T13:04:42;27.85;;;12.27;;
65835;SDS011;52595;51.608;7.216;2022-10-31T13:12:43;24.02;;;10.93;;
65835;SDS011;52595;51.608;7.216;2022-10-31T13:15:13;22.73;;;12.38;;
65835;SDS011;52595;51.608;7.216;2022-10-31T13:17:46;22.27;;;12.10;;
65835;SDS011;52595;51.608;7.216;2022-10-31T13:22:48;21.63;;;10.48;;
65835;SDS011;52595;51.608;7.216;2022-10-31T13:25:18;21.30;;;11.23;;
65835;SDS011;52595;51.608;7.216;2022-10-31T13:30:51;28.38;;;12.07;;
65835;SDS011;52595;51.608;7.216;2022-10-31T13:38:47;24.40;;;11.40;;
65835;SDS011;52595;51.608;7.216;2022-10-31T13:46:44;23.65;;;11.68;;
65835;SDS011;52595;51.608;7.216;2022-10-31T13:54:40;24.30;;;11.23;;
65835;SDS011;52595;51.608;7.216;2022-10-31T14:00:21;24.48;;;12.10;;
65835;SDS011;52595;51.608;7.216;2022-10-31T14:02:50;30.88;;;11.93;;
65835;SDS011;52595;51.608;7.216;2022-10-31T14:05:27;26.95;;;12.15;;
65835;SDS011;52595;51.608;7.216;2022-10-31T14:07:56;25.55;;;11.98;;
65835;SDS011;52595;51.608;7.216;2022-10-31T14:10:35;25.92;;;12.18;;
65835;SDS011;52595;51.608;7.216;2022-10-31T14:13:07;33.05;;;12.90;;
65835;SDS011;52595;51.608;7.216;2022-10-31T14:15:38;24.95;;;11.65;;
65835;SDS011;52595;51.608;7.216;2022-10-31T14:18:19;29.17;;;12.37;;
65835;SDS011;52595;51.608;7.216;2022-10-31T14:20:49;30.15;;;12.52;;
65835;SDS011;52595;51.608;7.216;2022-10-31T14:23:34;23.17;;;11.45;;
65835;SDS011;52595;51.608;7.216;2022-10-31T14:26:30;27.17;;;12.50;;
65835;SDS011;52595;51.608;7.216;2022-10-31T14:31:53;24.45;;;12.82;;
65835;SDS011;52595;51.608;7.216;2022-10-31T14:34:30;31.15;;;12.65;;
65835;SDS011;52595;51.608;7.216;2022-10-31T14:37:21;27.45;;;12.73;;
65835;SDS011;52595;51.608;7.216;2022-10-31T14:39:53;28.80;;;12.90;;
65835;SDS011;52595;51.608;7.216;2022-10-31T14:51:19;25.27;;;12.25;;
65835;SDS011;52595;51.608;7.216;2022-10-31T14:53:50;27.17;;;12.75;;
65835;SDS011;52595;51.608;7.216;2022-10-31T14:56:23;22.55;;;12.48;;
65835;SDS011;52595;51.608;7.216;2022-10-31T14:58:51;27.27;;;13.00;;
65835;SDS011;52595;51.608;7.216;2022-10-31T15:03:57;28.40;;;13.05;;
65835;SDS011;52595;51.608;7.216;2022-10-31T15:06:27;31.02;;;13.85;;
65835;SDS011;52595;51.608;7.216;2022-10-31T15:09:01;28.00;;;14.27;;
65835;SDS011;52595;51.608;7.216;2022-10-31T15:11:27;26.17;;;14.07;;
65835;SDS011;52595;51.608;7.216;2022-10-31T15:13:56;31.98;;;14.32;;
65835;SDS011;52595;51.608;7.216;2022-10-31T15:16:23;27.55;;;13.55;;
65835;SDS011;52595;51.608;7.216;2022-10-31T15:18:56;28.02;;;14.30;;
65835;SDS011;52595;51.608;7.216;2022-10-31T15:21:25;33.55;;;14.18;;
65835;SDS011;52595;51.608;7.216;2022-10-31T15:23:53;31.85;;;14.95;;
65835;SDS011;52595;51.608;7.216;2022-10-31T15:26:23;26.70;;;13.95;;
65835;SDS011;52595;51.608;7.216;2022-10-31T15:29:02;27.15;;;14.60;;
65835;SDS011;52595;51.608;7.216;2022-10-31T15:31:29;30.05;;;14.65;;
65835;SDS011;52595;51.608;7.216;2022-10-31T15:33:55;34.47;;;14.45;;
65835;SDS011;52595;51.608;7.216;2022-10-31T15:36:26;29.27;;;14.18;;
65835;SDS011;52595;51.608;7.216;2022-10-31T15:38:51;24.17;;;14.10;;
65835;SDS011;52595;51.608;7.216;2022-10-31T15:41:27;25.40;;;14.07;;
65835;SDS011;52595;51.608;7.216;2022-10-31T15:43:59;27.98;;;14.45;;
65835;SDS011;52595;51.608;7.216;2022-10-31T15:46:56;32.05;;;14.43;;
65835;SDS011;52595;51.608;7.216;2022-10-31T15:52:14;28.52;;;14.00;;
65835;SDS011;52595;51.608;7.216;2022-10-31T15:54:51;30.35;;;14.05;;
65835;SDS011;52595;51.608;7.216;2022-10-31T15:57:20;29.88;;;14.52;;
65835;SDS011;52595;51.608;7.216;2022-10-31T15:59:47;33.60;;;15.65;;
65835;SDS011;52595;51.608;7.216;2022-10-31T16:02:14;34.80;;;15.55;;
65835;SDS011;52595;51.608;7.216;2022-10-31T16:04:48;31.60;;;15.13;;
65835;SDS011;52595;51.608;7.216;2022-10-31T16:07:23;28.90;;;14.57;;
65835;SDS011;52595;51.608;7.216;2022-10-31T16:09:51;35.55;;;14.85;;
65835;SDS011;52595;51.608;7.216;2022-10-31T16:12:16;30.95;;;15.32;;
65835;SDS011;52595;51.608;7.216;2022-10-31T16:14:42;35.80;;;14.73;;
65835;SDS011;52595;51.608;7.216;2022-10-31T16:17:11;29.83;;;14.85;;
65835;SDS011;52595;51.608;7.216;2022-10-31T16:22:37;36.05;;;14.55;;
65835;SDS011;52595;51.608;7.216;2022-10-31T16:27:30;35.30;;;15.98;;
65835;SDS011;52595;51.608;7.216;2022-10-31T16:29:58;39.70;;;16.25;;
65835;SDS011;52595;51.608;7.216;2022-10-31T16:37:36;34.47;;;15.88;;
65835;SDS011;52595;51.608;7.216;2022-10-31T16:40:03;35.30;;;16.65;;
65835;SDS011;52595;51.608;7.216;2022-10-31T16:42:29;33.08;;;15.55;;
65835;SDS011;52595;51.608;7.216;2022-10-31T16:44:54;36.22;;;16.58;;
65835;SDS011;52595;51.608;7.216;2022-10-31T16:47:19;29.35;;;14.85;;
65835;SDS011;52595;51.608;7.216;2022-10-31T16:49:46;30.85;;;15.55;;
65835;SDS011;52595;51.608;7.216;2022-10-31T16:52:14;37.88;;;16.85;;
65835;SDS011;52595;51.608;7.216;2022-10-31T16:54:39;32.22;;;15.95;;
65835;SDS011;52595;51.608;7.216;2022-10-31T16:57:05;36.00;;;16.27;;
65835;SDS011;52595;51.608;7.216;2022-10-31T16:59:31;31.67;;;16.27;;
65835;SDS011;52595;51.608;7.216;2022-10-31T17:02:00;31.40;;;15.48;;